createdAt,value
2023-03-31T00:01:42.810Z,9.82
2023-03-31T00:04:13.362Z,9.77
2023-03-31T00:06:41.947Z,9.69
2023-03-31T00:09:11.815Z,9.69
2023-03-31T00:11:38.725Z,9.66
2023-03-31T00:14:07.233Z,9.66
2023-03-31T00:16:34.914Z,9.65
2023-03-31T00:19:01.993Z,9.64
2023-03-31T00:21:34.337Z,9.55
2023-03-31T00:24:05.363Z,9.66
2023-03-31T00:26:32.082Z,9.61
2023-03-31T00:28:58.875Z,9.60
2023-03-31T00:31:25.517Z,9.62
2023-03-31T00:33:52.053Z,9.61
2023-03-31T00:36:21.389Z,9.64
2023-03-31T00:38:48.624Z,9.60
2023-03-31T00:41:15.818Z,9.46
2023-03-31T00:43:42.300Z,9.41
2023-03-31T00:46:27.496Z,9.36
2023-03-31T00:48:57.527Z,9.51
2023-03-31T00:51:25.863Z,9.54
2023-03-31T00:53:57.503Z,9.34
2023-03-31T00:56:24.003Z,9.30
2023-03-31T00:58:50.475Z,9.18
2023-03-31T01:01:19.303Z,9.07
2023-03-31T01:03:46.879Z,9.09
2023-03-31T01:06:14.901Z,9.01
2023-03-31T01:08:41.385Z,8.80
2023-03-31T01:11:09.785Z,8.50
2023-03-31T01:13:37.056Z,8.49
2023-03-31T01:16:03.637Z,8.43
2023-03-31T01:18:36.159Z,8.26
2023-03-31T01:21:37.548Z,8.11
2023-03-31T01:24:35.672Z,8.19
2023-03-31T01:27:27.079Z,8.16
2023-03-31T01:30:13.067Z,8.14
2023-03-31T01:33:21.267Z,8.14
2023-03-31T01:35:57.662Z,8.28
2023-03-31T01:38:47.097Z,8.18
2023-03-31T01:41:26.246Z,8.14
2023-03-31T01:43:55.606Z,8.33
2023-03-31T01:46:41.860Z,8.30
2023-03-31T01:49:23.114Z,8.05
2023-03-31T01:52:04.231Z,8.03
2023-03-31T01:54:42.963Z,7.89
2023-03-31T01:57:15.104Z,7.74
2023-03-31T01:59:48.632Z,7.55
2023-03-31T02:02:18.038Z,7.44
2023-03-31T02:04:50.415Z,7.47
2023-03-31T02:07:22.634Z,7.35
2023-03-31T02:09:51.466Z,7.41
2023-03-31T02:12:18.464Z,7.54
2023-03-31T02:14:46.218Z,7.51
2023-03-31T02:17:18.024Z,7.38
2023-03-31T02:19:45.576Z,7.54
2023-03-31T02:22:12.035Z,7.46
2023-03-31T02:24:38.518Z,7.42
2023-03-31T02:27:42.226Z,7.28
2023-03-31T02:30:09.509Z,7.25
2023-03-31T02:32:41.013Z,7.40
2023-03-31T02:35:10.585Z,7.33
2023-03-31T02:37:37.065Z,7.24
2023-03-31T02:40:10.372Z,7.24
2023-03-31T02:42:38.376Z,7.29
2023-03-31T02:45:05.824Z,7.23
2023-03-31T02:47:32.368Z,7.36
2023-03-31T02:50:00.130Z,7.33
2023-03-31T02:52:41.794Z,7.22
2023-03-31T02:55:40.540Z,7.26
2023-03-31T02:58:36.961Z,7.28
2023-03-31T03:01:32.699Z,7.20
2023-03-31T03:04:20.919Z,7.20
2023-03-31T03:07:07.371Z,7.35
2023-03-31T03:09:50.626Z,7.43
2023-03-31T03:12:25.858Z,7.30
2023-03-31T03:15:07.684Z,7.51
2023-03-31T03:17:41.864Z,7.39
2023-03-31T03:20:09.464Z,7.25
2023-03-31T03:22:39.332Z,7.50
2023-03-31T03:25:11.860Z,7.56
2023-03-31T03:27:38.513Z,7.54
2023-03-31T03:30:06.411Z,7.47
2023-03-31T03:32:33.738Z,7.47
2023-03-31T03:35:03.994Z,7.48
2023-03-31T03:37:30.676Z,7.59
2023-03-31T03:39:57.233Z,7.65
2023-03-31T03:42:23.818Z,7.98
2023-03-31T03:44:50.297Z,7.93
2023-03-31T03:47:16.795Z,7.80
2023-03-31T03:49:43.337Z,7.79
2023-03-31T03:52:10.469Z,7.84
2023-03-31T03:54:36.931Z,7.93
2023-03-31T03:57:03.457Z,7.99
2023-03-31T03:59:29.996Z,8.14
2023-03-31T04:01:56.505Z,7.98
2023-03-31T04:04:22.986Z,7.87
2023-03-31T04:06:49.448Z,7.85
2023-03-31T04:09:15.982Z,7.79
2023-03-31T04:11:42.448Z,7.95
2023-03-31T04:14:08.937Z,7.93
2023-03-31T04:16:35.500Z,7.92
2023-03-31T04:19:04.660Z,8.07
2023-03-31T04:21:34.684Z,8.09
2023-03-31T04:24:07.077Z,8.14
2023-03-31T04:26:43.749Z,8.15
2023-03-31T04:29:14.238Z,8.11
2023-03-31T04:31:43.126Z,8.13
2023-03-31T04:34:14.721Z,8.26
2023-03-31T04:36:42.716Z,8.25
2023-03-31T04:39:12.578Z,8.22
2023-03-31T04:41:39.075Z,8.17
2023-03-31T04:44:05.827Z,8.25
2023-03-31T04:46:33.599Z,8.15
2023-03-31T04:49:00.968Z,8.14
2023-03-31T04:51:27.666Z,8.19
2023-03-31T04:53:54.148Z,8.27
2023-03-31T04:56:20.826Z,8.32
2023-03-31T04:58:47.429Z,8.32
2023-03-31T05:01:18.261Z,8.33
2023-03-31T05:03:47.818Z,8.33
2023-03-31T05:06:15.662Z,8.51
2023-03-31T05:08:42.399Z,8.43
2023-03-31T05:11:08.895Z,8.51
2023-03-31T05:13:35.355Z,8.41
2023-03-31T05:16:09.258Z,8.39
2023-03-31T05:18:36.662Z,8.35
2023-03-31T05:21:10.964Z,8.34
2023-03-31T05:23:37.468Z,8.33
2023-03-31T05:26:04.832Z,8.39
2023-03-31T05:28:32.522Z,8.39
2023-03-31T05:31:00.707Z,8.36
2023-03-31T05:33:27.734Z,8.29
2023-03-31T05:35:54.302Z,8.29
2023-03-31T05:38:21.528Z,8.40
2023-03-31T05:40:48.472Z,8.37
2023-03-31T05:43:14.994Z,8.41
2023-03-31T05:45:41.466Z,8.42
2023-03-31T05:48:08.053Z,8.57
2023-03-31T05:50:34.523Z,8.46
2023-03-31T05:53:01.106Z,8.49
2023-03-31T05:55:27.563Z,8.43
2023-03-31T05:57:55.200Z,8.42
2023-03-31T06:00:21.947Z,8.36
2023-03-31T06:02:48.551Z,8.37
2023-03-31T06:05:15.411Z,8.42
2023-03-31T06:07:41.881Z,8.44
2023-03-31T06:10:10.782Z,8.43
2023-03-31T06:12:37.447Z,8.47
2023-03-31T06:15:04.050Z,8.41
2023-03-31T06:17:30.631Z,8.46
2023-03-31T06:19:57.118Z,8.54
2023-03-31T06:22:23.835Z,8.54
2023-03-31T06:24:50.311Z,8.62
2023-03-31T06:27:17.045Z,8.60
2023-03-31T06:29:43.574Z,8.61
2023-03-31T06:32:10.215Z,8.57
2023-03-31T06:34:36.757Z,8.61
2023-03-31T06:37:03.234Z,8.59
2023-03-31T06:39:29.714Z,8.58
2023-03-31T06:41:56.282Z,8.66
2023-03-31T06:44:24.495Z,8.57
2023-03-31T06:46:50.992Z,8.53
2023-03-31T06:49:17.519Z,8.59
2023-03-31T06:51:43.997Z,8.65
2023-03-31T06:54:10.467Z,8.64
2023-03-31T06:56:36.947Z,8.64
2023-03-31T06:59:03.701Z,8.70
2023-03-31T07:01:31.571Z,8.70
2023-03-31T07:03:58.145Z,8.71
2023-03-31T07:06:24.622Z,8.63
2023-03-31T07:08:51.094Z,8.60
2023-03-31T07:11:20.966Z,8.74
2023-03-31T07:13:47.733Z,8.74
2023-03-31T07:16:14.258Z,8.76
2023-03-31T07:18:42.089Z,8.81
2023-03-31T07:21:10.072Z,8.84
2023-03-31T07:23:36.907Z,8.97
2023-03-31T07:26:03.434Z,8.95
2023-03-31T07:28:30.309Z,8.96
2023-03-31T07:30:56.856Z,9.01
2023-03-31T07:33:23.369Z,9.05
2023-03-31T07:36:10.070Z,8.98
2023-03-31T07:38:36.560Z,8.97
2023-03-31T07:41:08.902Z,8.99
2023-03-31T07:43:36.327Z,8.92
2023-03-31T07:46:02.938Z,8.90
2023-03-31T07:48:29.592Z,8.89
2023-03-31T07:50:56.170Z,8.90
2023-03-31T07:53:22.639Z,8.94
2023-03-31T07:55:49.159Z,8.99
2023-03-31T07:58:15.738Z,8.93
2023-03-31T08:00:42.250Z,8.95
2023-03-31T08:03:08.743Z,8.93
2023-03-31T08:05:35.328Z,8.97
2023-03-31T08:08:02.033Z,8.96
2023-03-31T08:10:28.608Z,8.95
2023-03-31T08:12:55.692Z,8.89
2023-03-31T08:15:22.202Z,8.93
2023-03-31T08:17:49.029Z,8.93
2023-03-31T08:20:15.632Z,8.95
2023-03-31T08:22:42.134Z,8.91
2023-03-31T08:25:09.013Z,8.89
2023-03-31T08:27:36.450Z,8.95
2023-03-31T08:30:04.659Z,8.94
2023-03-31T08:32:32.365Z,8.86
2023-03-31T08:34:59.223Z,8.83
2023-03-31T08:37:26.165Z,8.87
2023-03-31T08:39:52.952Z,8.88
2023-03-31T08:42:31.329Z,8.93
2023-03-31T08:45:06.830Z,8.87
2023-03-31T08:47:34.922Z,8.85
2023-03-31T08:50:07.938Z,8.91
2023-03-31T08:52:42.572Z,8.86
2023-03-31T08:55:19.838Z,8.93
2023-03-31T08:58:09.278Z,8.91
2023-03-31T09:00:41.089Z,8.90
2023-03-31T09:03:16.464Z,8.91
2023-03-31T09:06:00.545Z,8.91
2023-03-31T09:08:38.480Z,8.92
2023-03-31T09:11:27.665Z,8.96
2023-03-31T09:14:06.085Z,8.85
2023-03-31T09:16:33.872Z,8.93
2023-03-31T09:19:00.896Z,8.96
2023-03-31T09:21:44.713Z,9.01
2023-03-31T09:24:15.467Z,8.98
2023-03-31T09:26:46.105Z,8.97
2023-03-31T09:29:30.299Z,8.98
2023-03-31T09:32:21.006Z,8.82
2023-03-31T09:34:50.809Z,8.79
2023-03-31T09:37:17.279Z,8.82
2023-03-31T09:39:43.793Z,8.76
2023-03-31T09:42:13.492Z,8.75
2023-03-31T09:44:42.107Z,8.75
2023-03-31T09:47:15.126Z,8.75
2023-03-31T09:49:41.723Z,8.70
2023-03-31T09:52:30.223Z,8.73
2023-03-31T09:54:59.405Z,8.63
2023-03-31T09:57:34.320Z,8.67
2023-03-31T10:00:21.872Z,8.64
2023-03-31T10:03:01.509Z,8.56
2023-03-31T10:05:38.137Z,8.62
2023-03-31T10:08:22.570Z,8.72
2023-03-31T10:10:54.139Z,8.64
2023-03-31T10:13:23.365Z,8.64
2023-03-31T10:15:56.081Z,8.54
2023-03-31T10:18:32.319Z,8.47
2023-03-31T10:20:59.202Z,8.55
2023-03-31T10:23:31.202Z,8.51
2023-03-31T10:25:57.860Z,8.53
2023-03-31T10:28:24.362Z,8.49
2023-03-31T10:31:01.482Z,8.56
2023-03-31T10:33:29.368Z,8.53
2023-03-31T10:35:56.969Z,8.59
2023-03-31T10:38:29.178Z,8.69
2023-03-31T10:40:56.748Z,8.65
2023-03-31T10:43:39.432Z,8.72
2023-03-31T10:46:05.894Z,8.77
2023-03-31T10:48:33.820Z,8.72
2023-03-31T10:51:14.834Z,8.87
2023-03-31T10:53:42.670Z,8.92
2023-03-31T10:56:28.678Z,9.07
2023-03-31T10:59:24.132Z,9.06
2023-03-31T11:02:15.694Z,9.18
2023-03-31T11:04:57.139Z,9.22
2023-03-31T11:07:59.382Z,9.20
2023-03-31T11:10:48.559Z,9.19
2023-03-31T11:13:36.905Z,9.23
2023-03-31T11:16:30.877Z,9.16
2023-03-31T11:19:19.161Z,9.24
2023-03-31T11:22:00.425Z,9.34
2023-03-31T11:24:40.398Z,9.14
2023-03-31T11:27:16.546Z,9.17
2023-03-31T11:29:51.670Z,9.18
2023-03-31T11:32:41.488Z,9.00
2023-03-31T11:35:48.783Z,8.96
2023-03-31T11:38:40.614Z,8.90
2023-03-31T11:41:14.531Z,9.03
2023-03-31T11:43:52.271Z,8.90
2023-03-31T11:46:51.337Z,8.75
2023-03-31T11:49:38.848Z,8.81
2023-03-31T11:52:14.370Z,8.97
2023-03-31T11:54:43.401Z,9.11
2023-03-31T11:57:21.904Z,9.24
2023-03-31T11:59:53.058Z,9.33
2023-03-31T12:02:35.019Z,9.58
2023-03-31T12:05:01.523Z,9.71
2023-03-31T12:07:50.057Z,9.68
2023-03-31T12:10:56.060Z,9.90
2023-03-31T12:13:53.093Z,10.22
2023-03-31T12:16:24.154Z,10.37
2023-03-31T12:19:17.182Z,10.51
2023-03-31T12:21:48.448Z,10.62
2023-03-31T12:24:14.952Z,10.66
2023-03-31T12:27:00.632Z,10.80
2023-03-31T12:29:34.345Z,10.92
2023-03-31T12:32:03.688Z,10.89
2023-03-31T12:34:30.676Z,10.89
2023-03-31T12:37:21.300Z,10.93
2023-03-31T12:40:20.795Z,11.36
2023-03-31T12:42:53.699Z,11.47
2023-03-31T12:45:39.255Z,12.47
2023-03-31T12:48:39.534Z,12.64
2023-03-31T12:51:23.970Z,13.22
2023-03-31T12:54:29.464Z,13.19
2023-03-31T12:57:02.205Z,13.03
2023-03-31T12:59:38.713Z,13.22
2023-03-31T13:02:18.165Z,13.74
2023-03-31T13:04:44.655Z,14.14
2023-03-31T13:07:37.755Z,14.13
2023-03-31T13:10:16.711Z,13.71
2023-03-31T13:12:43.297Z,13.49
2023-03-31T13:15:13.555Z,13.15
2023-03-31T13:17:41.281Z,12.68
2023-03-31T13:20:30.060Z,12.63
2023-03-31T13:23:04.148Z,12.58
2023-03-31T13:25:30.491Z,12.41
2023-03-31T13:27:57.926Z,12.57
2023-03-31T13:30:39.490Z,12.73
2023-03-31T13:33:14.977Z,12.65
2023-03-31T13:35:46.871Z,12.70
2023-03-31T13:38:42.240Z,12.72
2023-03-31T13:41:15.613Z,12.45
2023-03-31T13:44:09.890Z,12.29
2023-03-31T13:46:59.892Z,11.19
2023-03-31T13:49:44.530Z,10.91
2023-03-31T13:52:11.958Z,10.68
2023-03-31T13:55:20.439Z,10.64
2023-03-31T13:58:33.694Z,10.40
2023-03-31T14:01:37.425Z,10.28
2023-03-31T14:04:17.177Z,10.30
2023-03-31T14:07:23.002Z,10.26
2023-03-31T14:09:49.968Z,10.44
2023-03-31T14:12:35.888Z,10.48
2023-03-31T14:15:02.466Z,10.50
2023-03-31T14:17:30.980Z,10.28
2023-03-31T14:20:08.009Z,10.30
2023-03-31T14:22:51.422Z,10.46
2023-03-31T14:25:27.104Z,10.32
2023-03-31T14:28:21.823Z,10.34
2023-03-31T14:31:25.149Z,10.44
2023-03-31T14:34:16.824Z,10.51
2023-03-31T14:36:57.817Z,10.50
2023-03-31T14:39:30.551Z,10.56
2023-03-31T14:42:00.020Z,10.35
2023-03-31T14:44:26.956Z,10.24
2023-03-31T14:46:56.697Z,10.25
2023-03-31T14:49:34.745Z,10.02
2023-03-31T14:52:01.988Z,9.91
2023-03-31T14:54:28.438Z,9.90
2023-03-31T14:56:56.419Z,9.80
2023-03-31T14:59:25.700Z,9.76
2023-03-31T15:01:52.233Z,9.94
2023-03-31T15:04:25.968Z,9.87
2023-03-31T15:06:59.462Z,9.81
2023-03-31T15:09:28.006Z,9.87
2023-03-31T15:11:58.913Z,9.95
2023-03-31T15:14:29.661Z,9.87
2023-03-31T15:16:56.359Z,10.00
2023-03-31T15:19:24.874Z,10.01
2023-03-31T15:21:56.415Z,9.94
2023-03-31T15:24:26.152Z,9.98
2023-03-31T15:27:00.037Z,9.91
2023-03-31T15:29:37.966Z,9.85
2023-03-31T15:32:06.824Z,10.00
2023-03-31T15:34:34.223Z,10.10
2023-03-31T15:37:00.965Z,10.16
2023-03-31T15:39:29.650Z,10.20
2023-03-31T15:41:56.650Z,10.22
2023-03-31T15:44:44.208Z,10.28
2023-03-31T15:47:17.804Z,10.35
2023-03-31T15:49:50.382Z,10.17
2023-03-31T15:52:21.693Z,10.07
2023-03-31T15:54:48.183Z,10.22
2023-03-31T15:57:17.822Z,10.22
2023-03-31T15:59:56.326Z,10.22
2023-03-31T16:02:24.932Z,10.19
2023-03-31T16:04:56.269Z,10.23
2023-03-31T16:07:24.813Z,10.19
2023-03-31T16:09:52.488Z,10.30
2023-03-31T16:12:55.548Z,10.25
2023-03-31T16:15:29.665Z,10.23
2023-03-31T16:18:01.262Z,10.17
2023-03-31T16:20:29.758Z,10.20
2023-03-31T16:22:58.724Z,10.11
2023-03-31T16:25:27.625Z,10.09
2023-03-31T16:27:55.792Z,10.08
2023-03-31T16:30:35.901Z,10.11
2023-03-31T16:33:07.140Z,10.07
2023-03-31T16:35:37.830Z,10.09
2023-03-31T16:38:06.123Z,10.00
2023-03-31T16:40:43.023Z,9.96
2023-03-31T16:43:16.220Z,9.98
2023-03-31T16:45:51.100Z,9.84
2023-03-31T16:48:18.694Z,9.82
2023-03-31T16:50:46.124Z,9.82
2023-03-31T16:53:13.715Z,9.83
2023-03-31T16:55:40.596Z,9.85
2023-03-31T16:58:07.601Z,9.90
2023-03-31T17:00:35.585Z,9.96
2023-03-31T17:03:05.786Z,9.82
2023-03-31T17:05:33.947Z,9.80
2023-03-31T17:08:00.766Z,9.82
2023-03-31T17:10:27.344Z,9.78
2023-03-31T17:12:53.847Z,9.74
2023-03-31T17:15:20.321Z,9.80
2023-03-31T17:17:47.792Z,9.81
2023-03-31T17:20:14.304Z,9.80
2023-03-31T17:22:40.773Z,9.88
2023-03-31T17:25:08.122Z,9.76
2023-03-31T17:27:34.668Z,9.77
2023-03-31T17:30:01.173Z,9.79
2023-03-31T17:32:28.608Z,9.78
2023-03-31T17:34:55.234Z,9.71
2023-03-31T17:37:21.719Z,9.65
2023-03-31T17:39:48.253Z,9.73
2023-03-31T17:42:14.806Z,9.69
2023-03-31T17:44:41.488Z,9.64
2023-03-31T17:47:08.224Z,9.70
2023-03-31T17:49:39.205Z,9.69
2023-03-31T17:52:05.672Z,9.62
2023-03-31T17:54:32.163Z,9.67
2023-03-31T17:56:58.958Z,9.74
2023-03-31T17:59:26.462Z,9.50
2023-03-31T18:01:52.994Z,9.54
2023-03-31T18:04:19.597Z,9.47
2023-03-31T18:06:48.004Z,9.39
2023-03-31T18:09:14.993Z,9.48
2023-03-31T18:11:42.544Z,9.43
2023-03-31T18:14:09.091Z,9.32
2023-03-31T18:16:35.860Z,9.23
2023-03-31T18:19:02.636Z,9.29
2023-03-31T18:21:29.106Z,9.23
2023-03-31T18:23:55.642Z,9.19
2023-03-31T18:26:26.018Z,9.16
2023-03-31T18:28:52.641Z,9.17
2023-03-31T18:31:19.237Z,9.20
2023-03-31T18:33:45.764Z,9.21
2023-03-31T18:36:17.732Z,9.14
2023-03-31T18:38:45.645Z,9.04
2023-03-31T18:41:12.642Z,9.00
2023-03-31T18:43:39.136Z,9.11
2023-03-31T18:46:05.651Z,9.05
2023-03-31T18:48:32.313Z,9.02
2023-03-31T18:50:58.811Z,9.07
2023-03-31T18:53:25.399Z,9.08
2023-03-31T18:55:53.133Z,9.07
2023-03-31T18:58:19.627Z,9.05
2023-03-31T19:00:46.231Z,8.98
2023-03-31T19:03:13.654Z,8.98
2023-03-31T19:05:40.228Z,9.06
2023-03-31T19:08:06.704Z,8.96
2023-03-31T19:10:33.196Z,8.98
2023-03-31T19:12:59.660Z,9.02
2023-03-31T19:15:27.821Z,8.97
2023-03-31T19:17:54.604Z,8.98
2023-03-31T19:20:21.400Z,8.99
2023-03-31T19:22:52.183Z,8.94
2023-03-31T19:25:19.424Z,9.00
2023-03-31T19:27:46.162Z,8.95
2023-03-31T19:30:18.227Z,9.00
2023-03-31T19:32:45.702Z,8.96
2023-03-31T19:35:12.303Z,8.98
2023-03-31T19:37:38.788Z,8.92
2023-03-31T19:40:06.054Z,8.99
2023-03-31T19:42:35.814Z,8.96
2023-03-31T19:45:02.296Z,9.03
2023-03-31T19:47:28.797Z,9.15
2023-03-31T19:49:55.599Z,8.92
2023-03-31T19:52:22.106Z,8.95
2023-03-31T19:54:48.589Z,8.95
2023-03-31T19:57:15.122Z,8.94
2023-03-31T19:59:41.601Z,8.89
2023-03-31T20:02:08.680Z,8.82
2023-03-31T20:04:35.432Z,8.77
2023-03-31T20:07:02.250Z,8.84
2023-03-31T20:09:28.824Z,8.83
2023-03-31T20:11:55.425Z,8.80
2023-03-31T20:14:22.393Z,8.83
2023-03-31T20:16:50.820Z,8.89
2023-03-31T20:19:17.714Z,8.86
2023-03-31T20:21:44.832Z,8.86
2023-03-31T20:24:15.596Z,8.92
2023-03-31T20:26:42.356Z,8.85
2023-03-31T20:29:09.529Z,8.87
2023-03-31T20:31:37.433Z,8.82
2023-03-31T20:34:04.543Z,8.83
2023-03-31T20:36:32.208Z,8.76
2023-03-31T20:38:59.388Z,8.83
2023-03-31T20:41:27.445Z,8.78
2023-03-31T20:43:54.431Z,8.77
2023-03-31T20:46:21.023Z,8.81
2023-03-31T20:48:49.387Z,8.79
2023-03-31T20:51:20.211Z,8.72
2023-03-31T20:53:48.722Z,8.63
2023-03-31T20:56:17.390Z,8.74
2023-03-31T20:58:44.520Z,8.74
2023-03-31T21:01:11.541Z,8.70
2023-03-31T21:03:38.117Z,8.65
2023-03-31T21:06:06.679Z,8.73
2023-03-31T21:08:37.992Z,8.61
2023-03-31T21:11:04.473Z,8.62
2023-03-31T21:13:31.670Z,8.65
2023-03-31T21:15:58.902Z,8.61
2023-03-31T21:18:29.107Z,8.65
2023-03-31T21:20:57.065Z,8.63
2023-03-31T21:23:23.602Z,8.61
2023-03-31T21:25:51.123Z,8.57
2023-03-31T21:28:19.810Z,8.59
2023-03-31T21:30:57.048Z,8.64
2023-03-31T21:33:24.230Z,8.62
2023-03-31T21:35:51.481Z,8.55
2023-03-31T21:38:18.288Z,8.55
2023-03-31T21:40:44.753Z,8.58
2023-03-31T21:43:11.241Z,8.58
2023-03-31T21:45:37.827Z,8.64
2023-03-31T21:48:05.964Z,8.62
2023-03-31T21:50:34.513Z,8.60
2023-03-31T21:53:01.624Z,8.64
2023-03-31T21:55:28.175Z,8.62
2023-03-31T21:57:54.753Z,8.62
2023-03-31T22:00:21.278Z,8.65
2023-03-31T22:02:47.876Z,8.56
2023-03-31T22:05:14.446Z,8.64
2023-03-31T22:07:41.294Z,8.59
2023-03-31T22:10:08.230Z,8.56
2023-03-31T22:12:34.709Z,8.60
2023-03-31T22:15:01.170Z,8.60
2023-03-31T22:17:27.956Z,8.59
2023-03-31T22:19:55.004Z,8.67
2023-03-31T22:22:21.658Z,8.59
2023-03-31T22:24:48.238Z,8.54
2023-03-31T22:27:14.724Z,8.60
2023-03-31T22:29:41.303Z,8.59
2023-03-31T22:32:07.780Z,8.54
2023-03-31T22:34:34.269Z,8.57
2023-03-31T22:37:01.140Z,8.57
2023-03-31T22:39:27.637Z,8.60
2023-03-31T22:41:54.134Z,8.56
2023-03-31T22:44:20.889Z,8.59
2023-03-31T22:46:47.413Z,8.53
2023-03-31T22:49:14.638Z,8.54
2023-03-31T22:51:41.650Z,8.47
2023-03-31T22:54:09.778Z,8.49
2023-03-31T22:56:36.744Z,8.48
2023-03-31T22:59:03.211Z,8.53
2023-03-31T23:01:29.873Z,8.51
2023-03-31T23:03:56.537Z,8.53
2023-03-31T23:06:23.182Z,8.48
2023-03-31T23:08:49.672Z,8.50
2023-03-31T23:11:17.809Z,8.43
2023-03-31T23:13:44.880Z,8.46
2023-03-31T23:16:24.625Z,8.40
2023-03-31T23:18:52.553Z,8.41
2023-03-31T23:21:21.650Z,8.40
2023-03-31T23:23:51.197Z,8.38
2023-03-31T23:26:19.150Z,8.35
2023-03-31T23:28:49.113Z,8.33
2023-03-31T23:31:16.743Z,8.27
2023-03-31T23:33:43.224Z,8.29
2023-03-31T23:36:09.775Z,8.32
2023-03-31T23:38:36.260Z,8.30
2023-03-31T23:41:03.614Z,8.33
2023-03-31T23:43:30.213Z,8.29
2023-03-31T23:45:56.908Z,8.29
2023-03-31T23:48:23.415Z,8.26
2023-03-31T23:50:49.890Z,8.24
2023-03-31T23:53:16.907Z,8.17
2023-03-31T23:55:43.423Z,8.10
2023-03-31T23:58:09.926Z,8.12
